sensor_id;sensor_type;location;lat;lon;timestamp;P1;durP1;ratioP1;P2;durP2;ratioP2
25621;SDS011;13487;39.360;22.962;2022-12-07T00:00:50;0.97;;;0.87;;
25621;SDS011;13487;39.360;22.962;2022-12-07T00:03:15;1.00;;;1.00;;
25621;SDS011;13487;39.360;22.962;2022-12-07T00:05:41;2.00;;;1.80;;
25621;SDS011;13487;39.360;22.962;2022-12-07T00:08:07;2.47;;;2.10;;
25621;SDS011;13487;39.360;22.962;2022-12-07T00:10:33;1.83;;;1.37;;
25621;SDS011;13487;39.360;22.962;2022-12-07T00:12:59;0.63;;;0.63;;
25621;SDS011;13487;39.360;22.962;2022-12-07T00:15:25;0.50;;;0.50;;
25621;SDS011;13487;39.360;22.962;2022-12-07T00:17:51;5.50;;;2.40;;
25621;SDS011;13487;39.360;22.962;2022-12-07T00:20:17;1.27;;;1.17;;
25621;SDS011;13487;39.360;22.962;2022-12-07T00:22:43;2.40;;;2.20;;
25621;SDS011;13487;39.360;22.962;2022-12-07T00:25:08;5.70;;;3.13;;
25621;SDS011;13487;39.360;22.962;2022-12-07T00:27:34;3.03;;;1.90;;
25621;SDS011;13487;39.360;22.962;2022-12-07T00:30:00;3.43;;;1.77;;
25621;SDS011;13487;39.360;22.962;2022-12-07T00:32:26;3.97;;;2.13;;
25621;SDS011;13487;39.360;22.962;2022-12-07T00:34:52;0.73;;;0.73;;
25621;SDS011;13487;39.360;22.962;2022-12-07T00:37:17;8.53;;;2.17;;
25621;SDS011;13487;39.360;22.962;2022-12-07T00:39:43;2.63;;;2.27;;
25621;SDS011;13487;39.360;22.962;2022-12-07T00:42:11;1.13;;;1.13;;
25621;SDS011;13487;39.360;22.962;2022-12-07T00:44:36;1.50;;;1.40;;
25621;SDS011;13487;39.360;22.962;2022-12-07T00:47:02;10.97;;;1.67;;
25621;SDS011;13487;39.360;22.962;2022-12-07T00:49:28;2.07;;;1.57;;
25621;SDS011;13487;39.360;22.962;2022-12-07T00:51:54;4.80;;;1.63;;
25621;SDS011;13487;39.360;22.962;2022-12-07T00:54:19;1.67;;;1.53;;
25621;SDS011;13487;39.360;22.962;2022-12-07T00:56:45;1.23;;;1.23;;
25621;SDS011;13487;39.360;22.962;2022-12-07T00:59:12;2.07;;;1.97;;
25621;SDS011;13487;39.360;22.962;2022-12-07T01:01:40;1.67;;;1.50;;
25621;SDS011;13487;39.360;22.962;2022-12-07T01:04:07;3.93;;;2.47;;
25621;SDS011;13487;39.360;22.962;2022-12-07T01:06:33;2.50;;;1.73;;
25621;SDS011;13487;39.360;22.962;2022-12-07T01:08:59;1.90;;;1.80;;
25621;SDS011;13487;39.360;22.962;2022-12-07T01:11:26;2.20;;;1.53;;
25621;SDS011;13487;39.360;22.962;2022-12-07T01:13:54;1.90;;;1.77;;
25621;SDS011;13487;39.360;22.962;2022-12-07T01:16:22;1.10;;;1.10;;
25621;SDS011;13487;39.360;22.962;2022-12-07T01:18:51;4.27;;;2.70;;
25621;SDS011;13487;39.360;22.962;2022-12-07T01:21:24;2.57;;;1.73;;
25621;SDS011;13487;39.360;22.962;2022-12-07T01:23:52;1.03;;;1.03;;
25621;SDS011;13487;39.360;22.962;2022-12-07T01:26:21;3.93;;;1.83;;
25621;SDS011;13487;39.360;22.962;2022-12-07T01:28:49;1.30;;;1.20;;
25621;SDS011;13487;39.360;22.962;2022-12-07T01:31:19;1.27;;;1.27;;
25621;SDS011;13487;39.360;22.962;2022-12-07T01:33:49;0.80;;;0.80;;
25621;SDS011;13487;39.360;22.962;2022-12-07T01:36:20;5.70;;;2.03;;
25621;SDS011;13487;39.360;22.962;2022-12-07T01:38:48;1.63;;;1.03;;
25621;SDS011;13487;39.360;22.962;2022-12-07T01:41:18;1.17;;;1.07;;
25621;SDS011;13487;39.360;22.962;2022-12-07T01:49:22;1.03;;;1.03;;
25621;SDS011;13487;39.360;22.962;2022-12-07T01:54:28;4.07;;;2.57;;
25621;SDS011;13487;39.360;22.962;2022-12-07T01:56:55;0.80;;;0.80;;
25621;SDS011;13487;39.360;22.962;2022-12-07T01:59:23;2.67;;;1.80;;
25621;SDS011;13487;39.360;22.962;2022-12-07T02:01:51;1.47;;;1.37;;
25621;SDS011;13487;39.360;22.962;2022-12-07T02:04:17;2.20;;;2.03;;
25621;SDS011;13487;39.360;22.962;2022-12-07T02:06:43;5.87;;;2.90;;
25621;SDS011;13487;39.360;22.962;2022-12-07T02:09:11;1.63;;;1.50;;
25621;SDS011;13487;39.360;22.962;2022-12-07T02:11:37;1.90;;;1.80;;
25621;SDS011;13487;39.360;22.962;2022-12-07T02:14:03;1.17;;;1.03;;
25621;SDS011;13487;39.360;22.962;2022-12-07T02:30:52;1.50;;;1.30;;
25621;SDS011;13487;39.360;22.962;2022-12-07T02:33:57;0.77;;;0.77;;
25621;SDS011;13487;39.360;22.962;2022-12-07T02:36:21;4.97;;;1.70;;
25621;SDS011;13487;39.360;22.962;2022-12-07T02:38:58;1.67;;;1.57;;
25621;SDS011;13487;39.360;22.962;2022-12-07T02:41:36;2.03;;;1.47;;
25621;SDS011;13487;39.360;22.962;2022-12-07T02:44:08;1.87;;;1.77;;
25621;SDS011;13487;39.360;22.962;2022-12-07T02:46:42;0.50;;;0.50;;
25621;SDS011;13487;39.360;22.962;2022-12-07T02:49:11;3.60;;;0.87;;
25621;SDS011;13487;39.360;22.962;2022-12-07T02:51:40;1.07;;;1.03;;
25621;SDS011;13487;39.360;22.962;2022-12-07T02:54:12;1.07;;;1.07;;
25621;SDS011;13487;39.360;22.962;2022-12-07T03:07:21;1.23;;;1.20;;
25621;SDS011;13487;39.360;22.962;2022-12-07T03:13:05;1.57;;;1.47;;
25621;SDS011;13487;39.360;22.962;2022-12-07T03:15:46;1.17;;;1.07;;
25621;SDS011;13487;39.360;22.962;2022-12-07T03:18:17;2.50;;;1.50;;
25621;SDS011;13487;39.360;22.962;2022-12-07T03:20:47;2.83;;;2.50;;
25621;SDS011;13487;39.360;22.962;2022-12-07T03:23:16;2.70;;;2.50;;
25621;SDS011;13487;39.360;22.962;2022-12-07T03:25:45;2.43;;;2.20;;
25621;SDS011;13487;39.360;22.962;2022-12-07T03:28:15;10.37;;;3.43;;
25621;SDS011;13487;39.360;22.962;2022-12-07T03:30:47;1.20;;;1.10;;
25621;SDS011;13487;39.360;22.962;2022-12-07T03:33:22;1.50;;;1.40;;
25621;SDS011;13487;39.360;22.962;2022-12-07T03:36:17;1.57;;;1.47;;
25621;SDS011;13487;39.360;22.962;2022-12-07T03:38:59;3.53;;;2.40;;
25621;SDS011;13487;39.360;22.962;2022-12-07T03:41:31;3.03;;;2.83;;
25621;SDS011;13487;39.360;22.962;2022-12-07T03:43:59;1.90;;;1.47;;
25621;SDS011;13487;39.360;22.962;2022-12-07T03:51:36;5.43;;;2.70;;
25621;SDS011;13487;39.360;22.962;2022-12-07T03:56:44;6.10;;;2.73;;
25621;SDS011;13487;39.360;22.962;2022-12-07T03:59:12;2.00;;;1.70;;
25621;SDS011;13487;39.360;22.962;2022-12-07T04:01:41;1.07;;;1.07;;
25621;SDS011;13487;39.360;22.962;2022-12-07T04:04:10;1.13;;;1.13;;
25621;SDS011;13487;39.360;22.962;2022-12-07T04:06:36;1.97;;;1.87;;
25621;SDS011;13487;39.360;22.962;2022-12-07T04:09:02;3.87;;;2.23;;
25621;SDS011;13487;39.360;22.962;2022-12-07T04:11:28;2.13;;;1.53;;
25621;SDS011;13487;39.360;22.962;2022-12-07T04:13:54;2.70;;;2.50;;
25621;SDS011;13487;39.360;22.962;2022-12-07T04:16:38;1.93;;;1.83;;
25621;SDS011;13487;39.360;22.962;2022-12-07T04:19:04;4.07;;;2.77;;
25621;SDS011;13487;39.360;22.962;2022-12-07T04:21:30;22.73;;;2.17;;
25621;SDS011;13487;39.360;22.962;2022-12-07T04:23:56;17.53;;;1.97;;
25621;SDS011;13487;39.360;22.962;2022-12-07T04:26:21;1.03;;;0.93;;
25621;SDS011;13487;39.360;22.962;2022-12-07T04:28:47;0.77;;;0.77;;
25621;SDS011;13487;39.360;22.962;2022-12-07T04:31:13;0.73;;;0.73;;
25621;SDS011;13487;39.360;22.962;2022-12-07T04:33:38;2.60;;;2.40;;
25621;SDS011;13487;39.360;22.962;2022-12-07T04:36:04;1.53;;;1.33;;
25621;SDS011;13487;39.360;22.962;2022-12-07T04:38:30;1.57;;;1.47;;
25621;SDS011;13487;39.360;22.962;2022-12-07T04:40:56;2.00;;;1.50;;
25621;SDS011;13487;39.360;22.962;2022-12-07T04:43:22;10.70;;;3.40;;
25621;SDS011;13487;39.360;22.962;2022-12-07T04:45:48;2.27;;;2.00;;
25621;SDS011;13487;39.360;22.962;2022-12-07T04:48:14;3.37;;;1.80;;
25621;SDS011;13487;39.360;22.962;2022-12-07T04:50:40;0.87;;;0.87;;
25621;SDS011;13487;39.360;22.962;2022-12-07T04:53:05;2.73;;;1.60;;
25621;SDS011;13487;39.360;22.962;2022-12-07T04:55:31;4.13;;;2.47;;
25621;SDS011;13487;39.360;22.962;2022-12-07T04:57:57;1.77;;;1.60;;
25621;SDS011;13487;39.360;22.962;2022-12-07T05:00:22;1.53;;;1.43;;
25621;SDS011;13487;39.360;22.962;2022-12-07T05:02:48;6.07;;;1.73;;
25621;SDS011;13487;39.360;22.962;2022-12-07T05:05:14;10.70;;;2.63;;
25621;SDS011;13487;39.360;22.962;2022-12-07T05:07:40;1.80;;;1.23;;
25621;SDS011;13487;39.360;22.962;2022-12-07T05:10:05;5.70;;;3.20;;
25621;SDS011;13487;39.360;22.962;2022-12-07T05:12:32;2.83;;;2.07;;
25621;SDS011;13487;39.360;22.962;2022-12-07T05:14:57;1.30;;;0.90;;
25621;SDS011;13487;39.360;22.962;2022-12-07T05:17:23;3.50;;;2.33;;
25621;SDS011;13487;39.360;22.962;2022-12-07T05:19:49;2.23;;;1.57;;
25621;SDS011;13487;39.360;22.962;2022-12-07T05:22:15;2.10;;;1.23;;
25621;SDS011;13487;39.360;22.962;2022-12-07T05:24:40;0.70;;;0.70;;
25621;SDS011;13487;39.360;22.962;2022-12-07T05:27:06;1.00;;;1.00;;
25621;SDS011;13487;39.360;22.962;2022-12-07T05:29:32;1.90;;;1.73;;
25621;SDS011;13487;39.360;22.962;2022-12-07T05:31:57;3.97;;;2.53;;
25621;SDS011;13487;39.360;22.962;2022-12-07T05:34:23;1.40;;;0.80;;
25621;SDS011;13487;39.360;22.962;2022-12-07T05:36:49;1.73;;;1.63;;
25621;SDS011;13487;39.360;22.962;2022-12-07T05:39:15;7.03;;;2.00;;
25621;SDS011;13487;39.360;22.962;2022-12-07T05:41:41;5.23;;;3.13;;
25621;SDS011;13487;39.360;22.962;2022-12-07T05:44:25;2.10;;;1.90;;
25621;SDS011;13487;39.360;22.962;2022-12-07T05:46:51;3.80;;;2.70;;
25621;SDS011;13487;39.360;22.962;2022-12-07T05:49:17;3.07;;;2.60;;
25621;SDS011;13487;39.360;22.962;2022-12-07T05:51:42;2.17;;;2.03;;
25621;SDS011;13487;39.360;22.962;2022-12-07T05:54:08;1.53;;;1.43;;
25621;SDS011;13487;39.360;22.962;2022-12-07T05:56:34;8.30;;;1.73;;
25621;SDS011;13487;39.360;22.962;2022-12-07T05:59:00;1.73;;;1.53;;
25621;SDS011;13487;39.360;22.962;2022-12-07T06:01:44;13.27;;;3.83;;
25621;SDS011;13487;39.360;22.962;2022-12-07T06:04:10;7.17;;;2.80;;
25621;SDS011;13487;39.360;22.962;2022-12-07T06:06:36;1.47;;;1.37;;
25621;SDS011;13487;39.360;22.962;2022-12-07T06:09:02;1.80;;;1.70;;
25621;SDS011;13487;39.360;22.962;2022-12-07T06:11:29;3.97;;;2.90;;
25621;SDS011;13487;39.360;22.962;2022-12-07T06:14:13;0.70;;;0.70;;
25621;SDS011;13487;39.360;22.962;2022-12-07T06:16:39;2.27;;;2.10;;
25621;SDS011;13487;39.360;22.962;2022-12-07T06:19:06;1.00;;;0.93;;
25621;SDS011;13487;39.360;22.962;2022-12-07T06:21:31;4.97;;;3.70;;
25621;SDS011;13487;39.360;22.962;2022-12-07T06:23:57;0.77;;;0.77;;
25621;SDS011;13487;39.360;22.962;2022-12-07T06:26:23;2.00;;;1.90;;
25621;SDS011;13487;39.360;22.962;2022-12-07T06:28:49;2.33;;;2.13;;
25621;SDS011;13487;39.360;22.962;2022-12-07T06:31:14;1.27;;;1.17;;
25621;SDS011;13487;39.360;22.962;2022-12-07T06:33:40;4.20;;;2.03;;
25621;SDS011;13487;39.360;22.962;2022-12-07T06:36:07;4.60;;;1.70;;
25621;SDS011;13487;39.360;22.962;2022-12-07T06:38:34;2.67;;;2.47;;
25621;SDS011;13487;39.360;22.962;2022-12-07T06:40:59;1.90;;;1.80;;
25621;SDS011;13487;39.360;22.962;2022-12-07T06:43:25;2.27;;;1.10;;
25621;SDS011;13487;39.360;22.962;2022-12-07T06:45:52;1.53;;;1.43;;
25621;SDS011;13487;39.360;22.962;2022-12-07T06:48:18;6.37;;;1.83;;
25621;SDS011;13487;39.360;22.962;2022-12-07T06:50:44;1.93;;;1.83;;
25621;SDS011;13487;39.360;22.962;2022-12-07T06:53:11;4.07;;;2.97;;
25621;SDS011;13487;39.360;22.962;2022-12-07T06:55:36;2.33;;;2.00;;
25621;SDS011;13487;39.360;22.962;2022-12-07T06:58:02;0.90;;;0.90;;
25621;SDS011;13487;39.360;22.962;2022-12-07T07:00:28;6.27;;;3.23;;
25621;SDS011;13487;39.360;22.962;2022-12-07T07:02:54;2.63;;;1.97;;
25621;SDS011;13487;39.360;22.962;2022-12-07T07:05:20;3.93;;;2.33;;
25621;SDS011;13487;39.360;22.962;2022-12-07T07:07:49;3.10;;;2.63;;
25621;SDS011;13487;39.360;22.962;2022-12-07T07:10:15;7.00;;;3.23;;
25621;SDS011;13487;39.360;22.962;2022-12-07T07:12:41;2.30;;;1.73;;
25621;SDS011;13487;39.360;22.962;2022-12-07T07:15:07;1.70;;;1.60;;
25621;SDS011;13487;39.360;22.962;2022-12-07T07:17:33;1.53;;;1.43;;
25621;SDS011;13487;39.360;22.962;2022-12-07T07:19:58;6.47;;;3.00;;
25621;SDS011;13487;39.360;22.962;2022-12-07T07:22:24;5.10;;;3.30;;
25621;SDS011;13487;39.360;22.962;2022-12-07T07:24:50;1.43;;;1.40;;
25621;SDS011;13487;39.360;22.962;2022-12-07T07:27:16;2.80;;;2.60;;
25621;SDS011;13487;39.360;22.962;2022-12-07T07:29:41;4.00;;;3.60;;
25621;SDS011;13487;39.360;22.962;2022-12-07T07:32:07;17.73;;;3.80;;
25621;SDS011;13487;39.360;22.962;2022-12-07T07:34:33;3.60;;;3.40;;
25621;SDS011;13487;39.360;22.962;2022-12-07T07:36:59;4.87;;;2.00;;
25621;SDS011;13487;39.360;22.962;2022-12-07T07:39:25;3.33;;;1.57;;
25621;SDS011;13487;39.360;22.962;2022-12-07T07:41:50;2.77;;;2.30;;
25621;SDS011;13487;39.360;22.962;2022-12-07T07:44:16;4.07;;;2.77;;
25621;SDS011;13487;39.360;22.962;2022-12-07T07:46:42;2.27;;;1.93;;
25621;SDS011;13487;39.360;22.962;2022-12-07T07:49:08;1.00;;;1.00;;
25621;SDS011;13487;39.360;22.962;2022-12-07T07:51:35;7.10;;;2.87;;
25621;SDS011;13487;39.360;22.962;2022-12-07T07:54:01;2.63;;;2.43;;
25621;SDS011;13487;39.360;22.962;2022-12-07T07:56:28;3.77;;;2.47;;
25621;SDS011;13487;39.360;22.962;2022-12-07T07:58:53;6.07;;;3.63;;
25621;SDS011;13487;39.360;22.962;2022-12-07T08:01:19;2.90;;;1.70;;
25621;SDS011;13487;39.360;22.962;2022-12-07T08:03:48;2.73;;;2.43;;
25621;SDS011;13487;39.360;22.962;2022-12-07T08:06:14;5.77;;;3.83;;
25621;SDS011;13487;39.360;22.962;2022-12-07T08:08:40;2.37;;;2.07;;
25621;SDS011;13487;39.360;22.962;2022-12-07T08:11:07;2.43;;;1.60;;
25621;SDS011;13487;39.360;22.962;2022-12-07T08:13:34;4.20;;;2.83;;
25621;SDS011;13487;39.360;22.962;2022-12-07T08:16:03;4.67;;;3.07;;
25621;SDS011;13487;39.360;22.962;2022-12-07T08:18:31;2.93;;;2.67;;
25621;SDS011;13487;39.360;22.962;2022-12-07T08:21:03;2.27;;;2.10;;
25621;SDS011;13487;39.360;22.962;2022-12-07T08:23:30;5.63;;;3.27;;
25621;SDS011;13487;39.360;22.962;2022-12-07T08:26:05;1.17;;;1.17;;
25621;SDS011;13487;39.360;22.962;2022-12-07T08:28:33;1.97;;;1.87;;
25621;SDS011;13487;39.360;22.962;2022-12-07T08:31:00;1.47;;;1.20;;
25621;SDS011;13487;39.360;22.962;2022-12-07T08:33:36;6.23;;;4.03;;
25621;SDS011;13487;39.360;22.962;2022-12-07T08:36:04;2.20;;;1.87;;
25621;SDS011;13487;39.360;22.962;2022-12-07T08:38:33;3.73;;;2.20;;
25621;SDS011;13487;39.360;22.962;2022-12-07T08:41:00;7.00;;;2.50;;
25621;SDS011;13487;39.360;22.962;2022-12-07T08:43:26;1.60;;;1.43;;
25621;SDS011;13487;39.360;22.962;2022-12-07T08:46:02;9.53;;;3.57;;
25621;SDS011;13487;39.360;22.962;2022-12-07T08:48:41;4.23;;;3.03;;
25621;SDS011;13487;39.360;22.962;2022-12-07T08:51:28;2.92;;;2.08;;
25621;SDS011;13487;39.360;22.962;2022-12-07T08:53:54;7.23;;;4.40;;
25621;SDS011;13487;39.360;22.962;2022-12-07T08:56:21;6.43;;;2.30;;
25621;SDS011;13487;39.360;22.962;2022-12-07T08:58:47;11.57;;;3.35;;
25621;SDS011;13487;39.360;22.962;2022-12-07T09:01:13;2.50;;;2.25;;
25621;SDS011;13487;39.360;22.962;2022-12-07T09:03:39;2.95;;;2.33;;
25621;SDS011;13487;39.360;22.962;2022-12-07T09:06:05;7.07;;;4.00;;
25621;SDS011;13487;39.360;22.962;2022-12-07T09:08:35;3.17;;;2.90;;
25621;SDS011;13487;39.360;22.962;2022-12-07T09:11:04;2.73;;;2.27;;
25621;SDS011;13487;39.360;22.962;2022-12-07T09:13:30;10.93;;;2.47;;
25621;SDS011;13487;39.360;22.962;2022-12-07T09:15:55;2.40;;;2.20;;
25621;SDS011;13487;39.360;22.962;2022-12-07T09:18:22;1.83;;;1.73;;
25621;SDS011;13487;39.360;22.962;2022-12-07T09:20:49;6.37;;;2.30;;
25621;SDS011;13487;39.360;22.962;2022-12-07T09:23:15;24.03;;;2.63;;
25621;SDS011;13487;39.360;22.962;2022-12-07T09:25:40;1.50;;;1.40;;
25621;SDS011;13487;39.360;22.962;2022-12-07T09:28:06;2.65;;;1.38;;
25621;SDS011;13487;39.360;22.962;2022-12-07T09:30:32;3.17;;;2.87;;
25621;SDS011;13487;39.360;22.962;2022-12-07T09:32:58;7.45;;;3.10;;
25621;SDS011;13487;39.360;22.962;2022-12-07T09:35:24;3.75;;;3.45;;
25621;SDS011;13487;39.360;22.962;2022-12-07T09:37:50;5.05;;;2.78;;
25621;SDS011;13487;39.360;22.962;2022-12-07T09:40:17;4.20;;;3.40;;
25621;SDS011;13487;39.360;22.962;2022-12-07T09:42:45;5.07;;;4.13;;
25621;SDS011;13487;39.360;22.962;2022-12-07T09:45:16;4.82;;;3.20;;
25621;SDS011;13487;39.360;22.962;2022-12-07T09:47:48;6.03;;;2.42;;
25621;SDS011;13487;39.360;22.962;2022-12-07T09:50:16;15.50;;;3.47;;
25621;SDS011;13487;39.360;22.962;2022-12-07T09:52:49;6.07;;;3.22;;
25621;SDS011;13487;39.360;22.962;2022-12-07T09:55:17;3.15;;;2.70;;
25621;SDS011;13487;39.360;22.962;2022-12-07T09:57:47;4.00;;;2.28;;
25621;SDS011;13487;39.360;22.962;2022-12-07T10:00:17;6.20;;;1.77;;
25621;SDS011;13487;39.360;22.962;2022-12-07T10:02:47;5.15;;;4.45;;
25621;SDS011;13487;39.360;22.962;2022-12-07T10:05:31;10.52;;;3.90;;
25621;SDS011;13487;39.360;22.962;2022-12-07T10:08:03;10.02;;;4.78;;
25621;SDS011;13487;39.360;22.962;2022-12-07T10:10:33;3.45;;;1.77;;
25621;SDS011;13487;39.360;22.962;2022-12-07T10:21:27;5.55;;;2.45;;
25621;SDS011;13487;39.360;22.962;2022-12-07T10:23:59;5.35;;;2.72;;
25621;SDS011;13487;39.360;22.962;2022-12-07T10:26:33;2.58;;;2.35;;
25621;SDS011;13487;39.360;22.962;2022-12-07T10:31:40;3.47;;;2.00;;
25621;SDS011;13487;39.360;22.962;2022-12-07T10:34:14;6.55;;;3.03;;
25621;SDS011;13487;39.360;22.962;2022-12-07T10:36:49;9.45;;;2.60;;
25621;SDS011;13487;39.360;22.962;2022-12-07T10:39:19;6.07;;;2.85;;
25621;SDS011;13487;39.360;22.962;2022-12-07T10:45:14;3.47;;;2.50;;
25621;SDS011;13487;39.360;22.962;2022-12-07T10:47:48;1.00;;;0.98;;
25621;SDS011;13487;39.360;22.962;2022-12-07T10:50:29;7.43;;;3.40;;
25621;SDS011;13487;39.360;22.962;2022-12-07T10:53:11;14.35;;;4.32;;
25621;SDS011;13487;39.360;22.962;2022-12-07T11:04:35;2.80;;;1.92;;
25621;SDS011;13487;39.360;22.962;2022-12-07T11:18:26;6.68;;;2.78;;
25621;SDS011;13487;39.360;22.962;2022-12-07T11:37:42;1.30;;;1.25;;
25621;SDS011;13487;39.360;22.962;2022-12-07T11:40:24;1.65;;;1.27;;
25621;SDS011;13487;39.360;22.962;2022-12-07T11:43:27;2.10;;;1.70;;
25621;SDS011;13487;39.360;22.962;2022-12-07T11:46:02;3.78;;;2.20;;
25621;SDS011;13487;39.360;22.962;2022-12-07T11:48:30;67.18;;;13.68;;
25621;SDS011;13487;39.360;22.962;2022-12-07T11:51:00;46.20;;;10.25;;
25621;SDS011;13487;39.360;22.962;2022-12-07T11:53:31;11.98;;;6.18;;
25621;SDS011;13487;39.360;22.962;2022-12-07T11:56:26;21.08;;;3.75;;
25621;SDS011;13487;39.360;22.962;2022-12-07T11:59:06;5.32;;;1.85;;
25621;SDS011;13487;39.360;22.962;2022-12-07T12:06:38;6.43;;;2.08;;
25621;SDS011;13487;39.360;22.962;2022-12-07T12:09:26;3.95;;;1.65;;
25621;SDS011;13487;39.360;22.962;2022-12-07T12:17:22;2.67;;;2.05;;
25621;SDS011;13487;39.360;22.962;2022-12-07T12:20:22;1.65;;;1.52;;
25621;SDS011;13487;39.360;22.962;2022-12-07T12:23:06;1.67;;;1.58;;
25621;SDS011;13487;39.360;22.962;2022-12-07T12:25:42;18.10;;;2.75;;
25621;SDS011;13487;39.360;22.962;2022-12-07T12:28:23;5.13;;;1.70;;
25621;SDS011;13487;39.360;22.962;2022-12-07T12:33:31;3.40;;;2.13;;
25621;SDS011;13487;39.360;22.962;2022-12-07T12:38:50;1.75;;;1.23;;
25621;SDS011;13487;39.360;22.962;2022-12-07T12:44:02;6.05;;;1.52;;
25621;SDS011;13487;39.360;22.962;2022-12-07T12:51:55;4.28;;;2.30;;
25621;SDS011;13487;39.360;22.962;2022-12-07T12:54:57;1.73;;;1.50;;
25621;SDS011;13487;39.360;22.962;2022-12-07T12:57:36;0.55;;;0.55;;
25621;SDS011;13487;39.360;22.962;2022-12-07T13:00:21;1.23;;;0.95;;
25621;SDS011;13487;39.360;22.962;2022-12-07T13:05:21;3.67;;;1.95;;
25621;SDS011;13487;39.360;22.962;2022-12-07T13:07:53;1.73;;;1.63;;
25621;SDS011;13487;39.360;22.962;2022-12-07T13:18:25;2.83;;;1.10;;
25621;SDS011;13487;39.360;22.962;2022-12-07T13:20:53;3.45;;;1.75;;
25621;SDS011;13487;39.360;22.962;2022-12-07T13:26:14;5.90;;;2.70;;
25621;SDS011;13487;39.360;22.962;2022-12-07T13:29:17;0.73;;;0.73;;
25621;SDS011;13487;39.360;22.962;2022-12-07T13:31:52;0.73;;;0.73;;
25621;SDS011;13487;39.360;22.962;2022-12-07T13:34:36;2.70;;;1.58;;
25621;SDS011;13487;39.360;22.962;2022-12-07T13:37:14;3.10;;;1.70;;
25621;SDS011;13487;39.360;22.962;2022-12-07T13:39:45;1.45;;;1.17;;
25621;SDS011;13487;39.360;22.962;2022-12-07T13:42:20;2.25;;;1.45;;
25621;SDS011;13487;39.360;22.962;2022-12-07T13:44:51;0.95;;;0.90;;
25621;SDS011;13487;39.360;22.962;2022-12-07T13:48:03;3.50;;;2.40;;
25621;SDS011;13487;39.360;22.962;2022-12-07T13:52:54;3.20;;;2.90;;
25621;SDS011;13487;39.360;22.962;2022-12-07T13:55:21;3.28;;;2.70;;
25621;SDS011;13487;39.360;22.962;2022-12-07T13:57:48;1.98;;;1.33;;
25621;SDS011;13487;39.360;22.962;2022-12-07T14:00:18;1.38;;;1.27;;
25621;SDS011;13487;39.360;22.962;2022-12-07T14:05:29;2.25;;;2.00;;
25621;SDS011;13487;39.360;22.962;2022-12-07T14:08:01;1.75;;;1.35;;
25621;SDS011;13487;39.360;22.962;2022-12-07T14:13:37;3.95;;;3.50;;
25621;SDS011;13487;39.360;22.962;2022-12-07T14:18:53;9.55;;;2.92;;
25621;SDS011;13487;39.360;22.962;2022-12-07T14:21:20;2.60;;;1.92;;
25621;SDS011;13487;39.360;22.962;2022-12-07T14:26:47;2.47;;;2.10;;
25621;SDS011;13487;39.360;22.962;2022-12-07T14:31:55;2.00;;;1.90;;
25621;SDS011;13487;39.360;22.962;2022-12-07T14:34:22;9.07;;;3.55;;
25621;SDS011;13487;39.360;22.962;2022-12-07T14:36:48;11.07;;;1.83;;
25621;SDS011;13487;39.360;22.962;2022-12-07T14:39:14;29.70;;;2.40;;
25621;SDS011;13487;39.360;22.962;2022-12-07T14:41:40;1.77;;;1.63;;
25621;SDS011;13487;39.360;22.962;2022-12-07T14:44:15;3.33;;;2.15;;
25621;SDS011;13487;39.360;22.962;2022-12-07T14:46:41;2.15;;;1.90;;
25621;SDS011;13487;39.360;22.962;2022-12-07T14:49:07;3.70;;;1.55;;
25621;SDS011;13487;39.360;22.962;2022-12-07T14:51:33;1.55;;;1.45;;
25621;SDS011;13487;39.360;22.962;2022-12-07T14:54:02;1.60;;;1.50;;
25621;SDS011;13487;39.360;22.962;2022-12-07T14:56:30;3.72;;;0.93;;
25621;SDS011;13487;39.360;22.962;2022-12-07T14:58:55;1.65;;;1.30;;
25621;SDS011;13487;39.360;22.962;2022-12-07T15:01:22;1.17;;;1.05;;
25621;SDS011;13487;39.360;22.962;2022-12-07T15:03:48;1.42;;;1.33;;
25621;SDS011;13487;39.360;22.962;2022-12-07T15:06:15;4.15;;;1.92;;
25621;SDS011;13487;39.360;22.962;2022-12-07T15:08:42;1.13;;;1.13;;
25621;SDS011;13487;39.360;22.962;2022-12-07T15:11:11;1.63;;;1.30;;
25621;SDS011;13487;39.360;22.962;2022-12-07T15:13:41;3.20;;;1.30;;
25621;SDS011;13487;39.360;22.962;2022-12-07T15:16:25;5.50;;;3.20;;
25621;SDS011;13487;39.360;22.962;2022-12-07T15:18:51;5.78;;;4.35;;
25621;SDS011;13487;39.360;22.962;2022-12-07T15:21:16;5.13;;;4.63;;
25621;SDS011;13487;39.360;22.962;2022-12-07T15:23:42;3.60;;;2.97;;
25621;SDS011;13487;39.360;22.962;2022-12-07T15:26:09;2.85;;;2.22;;
25621;SDS011;13487;39.360;22.962;2022-12-07T15:28:35;3.22;;;3.00;;
25621;SDS011;13487;39.360;22.962;2022-12-07T15:31:01;4.28;;;3.03;;
25621;SDS011;13487;39.360;22.962;2022-12-07T15:33:27;3.60;;;2.97;;
25621;SDS011;13487;39.360;22.962;2022-12-07T15:35:52;4.78;;;4.03;;
25621;SDS011;13487;39.360;22.962;2022-12-07T15:38:18;26.10;;;5.57;;
25621;SDS011;13487;39.360;22.962;2022-12-07T15:40:47;4.15;;;3.78;;
25621;SDS011;13487;39.360;22.962;2022-12-07T15:43:13;5.13;;;3.30;;
25621;SDS011;13487;39.360;22.962;2022-12-07T15:45:57;51.90;;;20.08;;
25621;SDS011;13487;39.360;22.962;2022-12-07T15:48:24;58.75;;;26.77;;
25621;SDS011;13487;39.360;22.962;2022-12-07T15:50:50;14.38;;;10.40;;
25621;SDS011;13487;39.360;22.962;2022-12-07T15:53:16;5.32;;;4.82;;
25621;SDS011;13487;39.360;22.962;2022-12-07T15:55:42;5.22;;;4.72;;
25621;SDS011;13487;39.360;22.962;2022-12-07T15:58:08;4.28;;;3.92;;
25621;SDS011;13487;39.360;22.962;2022-12-07T16:00:33;9.35;;;7.65;;
25621;SDS011;13487;39.360;22.962;2022-12-07T16:02:59;6.32;;;5.20;;
25621;SDS011;13487;39.360;22.962;2022-12-07T16:05:25;11.13;;;6.80;;
25621;SDS011;13487;39.360;22.962;2022-12-07T16:07:51;19.17;;;9.48;;
25621;SDS011;13487;39.360;22.962;2022-12-07T16:10:16;10.73;;;4.93;;
25621;SDS011;13487;39.360;22.962;2022-12-07T16:12:42;6.18;;;4.95;;
25621;SDS011;13487;39.360;22.962;2022-12-07T16:15:08;11.75;;;6.88;;
25621;SDS011;13487;39.360;22.962;2022-12-07T16:17:34;11.75;;;6.25;;
25621;SDS011;13487;39.360;22.962;2022-12-07T16:20:00;7.82;;;6.10;;
25621;SDS011;13487;39.360;22.962;2022-12-07T16:22:26;13.02;;;10.02;;
25621;SDS011;13487;39.360;22.962;2022-12-07T16:24:52;11.30;;;7.10;;
25621;SDS011;13487;39.360;22.962;2022-12-07T16:27:18;4.67;;;3.97;;
25621;SDS011;13487;39.360;22.962;2022-12-07T16:29:43;17.00;;;8.23;;
25621;SDS011;13487;39.360;22.962;2022-12-07T16:32:10;9.60;;;5.83;;
25621;SDS011;13487;39.360;22.962;2022-12-07T16:34:36;8.80;;;6.85;;
25621;SDS011;13487;39.360;22.962;2022-12-07T16:37:03;5.60;;;4.50;;
25621;SDS011;13487;39.360;22.962;2022-12-07T16:39:29;10.27;;;6.97;;
25621;SDS011;13487;39.360;22.962;2022-12-07T16:41:59;8.77;;;5.57;;
25621;SDS011;13487;39.360;22.962;2022-12-07T16:44:25;12.53;;;5.83;;
25621;SDS011;13487;39.360;22.962;2022-12-07T16:46:53;8.73;;;6.50;;
25621;SDS011;13487;39.360;22.962;2022-12-07T16:49:19;12.82;;;6.80;;
25621;SDS011;13487;39.360;22.962;2022-12-07T16:51:44;16.23;;;5.20;;
25621;SDS011;13487;39.360;22.962;2022-12-07T16:54:12;12.30;;;6.83;;
25621;SDS011;13487;39.360;22.962;2022-12-07T16:56:38;11.00;;;6.97;;
25621;SDS011;13487;39.360;22.962;2022-12-07T16:59:04;11.17;;;7.20;;
25621;SDS011;13487;39.360;22.962;2022-12-07T17:01:30;13.77;;;9.90;;
25621;SDS011;13487;39.360;22.962;2022-12-07T17:03:57;5.83;;;4.57;;
25621;SDS011;13487;39.360;22.962;2022-12-07T17:06:24;16.67;;;8.20;;
25621;SDS011;13487;39.360;22.962;2022-12-07T17:08:52;8.13;;;6.33;;
25621;SDS011;13487;39.360;22.962;2022-12-07T17:11:20;8.80;;;6.50;;
25621;SDS011;13487;39.360;22.962;2022-12-07T17:13:51;17.73;;;8.40;;